Time;durP1;ratioP1;P1;durP2;ratioP2;P2;SDS_P1;SDS_P2;PMS_P1;PMS_P2;Temp;Humidity;BMP_temperature;BMP_pressure;BME280_temperature;BME280_humidity;BME280_pressure;Samples;Min_cycle;Max_cycle;Signal;HPM_P1;HPM_P2
2023/08/05 00:00:23;;;;;;;;;;;;;;;18.36;67.82;99859.63;5065791;28;1530;-76
2023/08/05 00:03:15;;;;;;;;;;;;;;;18.35;67.87;99860.72;5078148;28;3177;-74
2023/08/05 00:06:07;;;;;;;;;;;;;;;18.34;67.96;99859.91;5074026;28;1683;-75
2023/08/05 00:08:59;;;;;;;;;;;;;;;18.33;68.16;99860.19;5065729;28;1995;-76
2023/08/05 00:11:51;;;;;;;;;;;;;;;18.34;67.99;99862.63;5061365;28;2295;-74
2023/08/05 00:14:43;;;;;;;;;;;;;;;18.33;67.81;99855.56;5059881;28;2250;-75
2023/08/05 00:17:35;;;;;;;;;;;;;;;18.32;68.07;99848.50;5054881;28;2262;-75
2023/08/05 00:20:27;;;;;;;;;;;;;;;18.31;67.94;99849.56;5057534;28;2147;-75
2023/08/05 00:23:19;;;;;;;;;;;;;;;18.30;67.99;99847.97;5059439;28;2245;-75
2023/08/05 00:26:11;;;;;;;;;;;;;;;18.30;68.12;99847.97;5062584;28;2487;-75
2023/08/05 00:29:02;;;;;;;;;;;;;;;18.29;67.99;99846.31;5057016;28;2203;-75
2023/08/05 00:31:55;;;;;;;;;;;;;;;18.28;67.79;99850.16;5052894;28;3912;-76
2023/08/05 00:34:46;;;;;;;;;;;;;;;18.27;67.88;99845.81;5055524;28;3110;-76
2023/08/05 00:37:38;;;;;;;;;;;;;;;18.27;67.71;99848.53;5068942;28;3316;-76
2023/08/05 00:40:30;;;;;;;;;;;;;;;18.26;67.92;99846.09;5066578;28;2098;-76
2023/08/05 00:43:21;;;;;;;;;;;;;;;18.26;67.83;99843.34;5069063;28;1914;-76
2023/08/05 00:46:14;;;;;;;;;;;;;;;18.25;67.93;99845.28;5066528;28;2254;-76
2023/08/05 00:49:05;;;;;;;;;;;;;;;18.26;67.69;99840.63;5054116;28;2206;-75
2023/08/05 00:51:58;;;;;;;;;;;;;;;18.24;67.84;99846.38;5055930;28;2325;-74
2023/08/05 00:54:50;;;;;;;;;;;;;;;18.23;67.84;99849.38;5056997;28;2214;-75
2023/08/05 00:57:42;;;;;;;;;;;;;;;18.23;67.69;99852.09;5058170;28;2492;-74
2023/08/05 01:00:33;;;;;;;;;;;;;;;18.23;67.89;99854.84;5053788;28;2269;-74
2023/08/05 01:03:25;;;;;;;;;;;;;;;18.22;67.85;99861.41;5051514;28;2218;-76
2023/08/05 01:06:18;;;;;;;;;;;;;;;18.21;67.83;99854.34;5057093;28;2215;-74
2023/08/05 01:09:10;;;;;;;;;;;;;;;18.21;67.83;99854.34;5057818;28;2167;-74
2023/08/05 01:12:02;;;;;;;;;;;;;;;18.21;67.74;99848.88;5061249;28;2222;-75
2023/08/05 01:14:54;;;;;;;;;;;;;;;18.20;67.50;99855.41;5059284;28;2017;-75
2023/08/05 01:17:46;;;;;;;;;;;;;;;18.22;67.77;99855.94;5053488;28;2331;-76
2023/08/05 01:20:37;;;;;;;;;;;;;;;18.21;67.59;99849.69;5055992;28;2361;-76
2023/08/05 01:23:29;;;;;;;;;;;;;;;18.22;67.59;99847.78;5073529;28;1965;-75
2023/08/05 01:26:21;;;;;;;;;;;;;;;18.21;67.48;99848.88;5056411;28;2226;-75
2023/08/05 01:29:13;;;;;;;;;;;;;;;18.19;67.83;99837.44;5056741;28;2241;-76
2023/08/05 01:32:05;;;;;;;;;;;;;;;18.21;67.38;99840.69;5054848;28;2259;-75
2023/08/05 01:34:56;;;;;;;;;;;;;;;18.28;67.31;99835.72;5058415;28;2227;-77
2023/08/05 01:37:49;;;;;;;;;;;;;;;18.24;67.36;99840.13;5054116;28;2311;-77
2023/08/05 01:40:41;;;;;;;;;;;;;;;18.23;67.45;99839.28;5055939;28;2551;-75
2023/08/05 01:43:33;;;;;;;;;;;;;;;18.27;67.13;99837.63;5057446;28;2634;-76
2023/08/05 01:46:25;;;;;;;;;;;;;;;18.31;66.84;99841.41;5063406;28;1635;-76
2023/08/05 01:49:17;;;;;;;;;;;;;;;18.38;66.66;99833.72;5062986;28;2837;-75
2023/08/05 01:52:09;;;;;;;;;;;;;;;18.43;66.48;99841.00;5064747;28;1655;-76
2023/08/05 01:55:01;;;;;;;;;;;;;;;18.39;66.57;99834.50;5070432;28;1552;-74
2023/08/05 01:57:52;;;;;;;;;;;;;;;18.50;66.03;99832.47;5070405;28;1607;-75
2023/08/05 02:00:44;;;;;;;;;;;;;;;18.55;65.88;99835.94;5062650;28;1571;-75
2023/08/05 02:03:37;;;;;;;;;;;;;;;18.51;65.70;99834.91;5067595;28;1942;-75
2023/08/05 02:06:29;;;;;;;;;;;;;;;18.61;65.89;99842.16;5080196;28;2082;-75
2023/08/05 02:09:21;;;;;;;;;;;;;;;18.50;66.04;99857.00;5081925;28;2093;-77
2023/08/05 02:12:13;;;;;;;;;;;;;;;18.57;65.75;99854.75;5087082;28;1639;-74
2023/08/05 02:15:05;;;;;;;;;;;;;;;18.80;65.05;99855.91;5085853;28;1433;-77
2023/08/05 02:17:57;;;;;;;;;;;;;;;18.72;64.81;99851.06;5076193;28;2296;-75
2023/08/05 02:20:48;;;;;;;;;;;;;;;18.80;64.65;99851.25;5054921;28;2369;-75
2023/08/05 02:23:41;;;;;;;;;;;;;;;18.80;64.59;99859.44;5053770;28;2415;-76
2023/08/05 02:26:33;;;;;;;;;;;;;;;18.87;64.46;99861.00;5063930;28;2651;-76
2023/08/05 02:29:25;;;;;;;;;;;;;;;18.97;64.16;99864.41;5058929;28;2222;-75
2023/08/05 02:32:17;;;;;;;;;;;;;;;18.77;64.57;99860.03;5058800;28;2221;-74
2023/08/05 02:35:09;;;;;;;;;;;;;;;18.98;63.73;99860.59;5058477;28;2040;-74
2023/08/05 02:38:01;;;;;;;;;;;;;;;19.11;63.53;99850.84;5059041;28;2147;-77
2023/08/05 02:40:53;;;;;;;;;;;;;;;18.93;63.74;99846.19;5064684;28;2178;-74
2023/08/05 02:43:45;;;;;;;;;;;;;;;19.00;63.92;99847.47;5060572;28;2583;-76
2023/08/05 02:46:37;;;;;;;;;;;;;;;19.04;63.69;99853.16;5068593;28;2706;-75
2023/08/05 02:49:29;;;;;;;;;;;;;;;18.98;63.46;99849.66;5059189;28;2566;-74
2023/08/05 02:52:21;;;;;;;;;;;;;;;18.89;63.87;99854.16;5055298;28;2452;-75
2023/08/05 02:55:13;;;;;;;;;;;;;;;18.75;64.31;99851.31;5060154;28;2177;-75
2023/08/05 02:58:05;;;;;;;;;;;;;;;18.85;64.21;99847.63;5065917;28;2359;-75
2023/08/05 03:00:57;;;;;;;;;;;;;;;18.85;64.10;99858.53;5059876;28;2227;-76
2023/08/05 03:03:49;;;;;;;;;;;;;;;18.93;63.82;99854.38;5062302;28;4253;-76
2023/08/05 03:06:41;;;;;;;;;;;;;;;19.06;63.15;99857.22;5058872;28;2195;-74
2023/08/05 03:09:33;;;;;;;;;;;;;;;18.82;64.03;99853.69;5059343;28;3161;-76
2023/08/05 03:12:25;;;;;;;;;;;;;;;19.01;63.19;99851.00;5063301;28;2198;-74
2023/08/05 03:15:17;;;;;;;;;;;;;;;19.04;63.14;99861.34;5061738;28;2538;-74
2023/08/05 03:18:08;;;;;;;;;;;;;;;19.02;63.01;99863.53;5055759;28;2286;-76
2023/08/05 03:21:01;;;;;;;;;;;;;;;18.72;64.21;99868.22;5058421;28;2186;-75
2023/08/05 03:23:53;;;;;;;;;;;;;;;18.77;64.10;99870.13;5059309;28;2076;-75
2023/08/05 03:26:45;;;;;;;;;;;;;;;18.86;63.63;99868.38;5067129;28;2611;-75
2023/08/05 03:29:37;;;;;;;;;;;;;;;18.62;64.34;99865.63;5063379;28;2208;-74
2023/08/05 03:32:29;;;;;;;;;;;;;;;18.81;nan;99860.25;5059099;28;2325;-74
2023/08/05 03:35:21;;;;;;;;;;;;;;;18.73;63.93;99861.69;5060166;28;2207;-75
2023/08/05 03:38:13;;;;;;;;;;;;;;;18.82;63.91;99864.59;5062879;28;2211;-75
2023/08/05 03:41:05;;;;;;;;;;;;;;;18.73;64.01;99861.69;5064225;28;2222;-74
2023/08/05 03:43:57;;;;;;;;;;;;;;;18.63;63.98;99859.06;5057374;28;2371;-76
2023/08/05 03:46:49;;;;;;;;;;;;;;;18.88;63.57;99879.78;5067329;28;1528;-76
2023/08/05 03:49:41;;;;;;;;;;;;;;;18.75;63.90;99883.22;5066850;28;1884;-75
2023/08/05 03:52:33;;;;;;;;;;;;;;;18.66;64.09;99879.50;5064874;28;1938;-76
2023/08/05 03:55:25;;;;;;;;;;;;;;;18.66;64.25;99876.75;5065885;28;1762;-75
2023/08/05 03:58:19;;;;;;;;;;;;;;;18.64;64.41;99877.03;5074722;28;1876;-76
2023/08/05 04:01:12;;;;;;;;;;;;;;;18.66;63.87;99882.22;5063019;28;1871;-76
2023/08/05 04:04:04;;;;;;;;;;;;;;;18.52;64.40;99882.88;5061195;28;2163;-76
2023/08/05 04:06:56;;;;;;;;;;;;;;;18.56;64.21;99889.41;5058572;28;2319;-76
2023/08/05 04:09:48;;;;;;;;;;;;;;;18.67;64.12;99886.56;5060253;28;2191;-76
2023/08/05 04:12:40;;;;;;;;;;;;;;;18.70;63.72;99899.63;5065347;28;2709;-75
2023/08/05 04:15:35;;;;;;;;;;;;;;;18.78;63.38;99888.91;5062068;28;2199;-75
2023/08/05 04:18:27;;;;;;;;;;;;;;;18.57;63.93;99901.94;5059190;28;2218;-74
2023/08/05 04:21:20;;;;;;;;;;;;;;;18.56;64.09;99903.03;5058906;28;2345;-76
2023/08/05 04:24:12;;;;;;;;;;;;;;;18.68;63.53;99896.34;5055953;28;2347;-76
2023/08/05 04:27:04;;;;;;;;;;;;;;;18.74;63.58;99887.06;5062185;28;2234;-76
2023/08/05 04:29:57;;;;;;;;;;;;;;;18.39;63.54;99859.84;5068168;28;1957;-75
2023/08/05 04:32:48;;;;;;;;;;;;;;;18.66;63.66;99901.31;5059143;28;2339;-75
2023/08/05 04:35:41;;;;;;;;;;;;;;;18.81;63.09;99893.78;5058061;28;2230;-75
2023/08/05 04:38:33;;;;;;;;;;;;;;;18.42;64.49;99893.91;5055729;28;2225;-76
2023/08/05 04:41:25;;;;;;;;;;;;;;;18.72;63.23;99902.88;5063278;28;2187;-76
2023/08/05 04:44:18;;;;;;;;;;;;;;;18.65;63.62;99905.13;5077393;28;2043;-76
2023/08/05 04:47:10;;;;;;;;;;;;;;;18.65;63.81;99908.69;5077422;28;1775;-74
2023/08/05 04:50:02;;;;;;;;;;;;;;;18.72;63.45;99900.94;5056863;28;2195;-76
2023/08/05 04:52:54;;;;;;;;;;;;;;;18.58;63.61;99910.91;5055176;28;2300;-75
2023/08/05 04:55:46;;;;;;;;;;;;;;;18.44;64.10;99916.22;5067999;28;1607;-75
2023/08/05 04:58:37;;;;;;;;;;;;;;;18.39;64.45;99910.84;5071887;28;1781;-74
2023/08/05 05:01:28;;;;;;;;;;;;;;;18.24;64.88;99917.25;5065632;28;1921;-74
2023/08/05 05:04:21;;;;;;;;;;;;;;;18.51;63.68;99926.81;5060401;28;2467;-75
2023/08/05 05:07:13;;;;;;;;;;;;;;;18.46;63.88;99922.22;5052275;28;2262;-75
2023/08/05 05:10:05;;;;;;;;;;;;;;;18.41;64.20;99924.97;5059268;28;2195;-74
2023/08/05 05:12:58;;;;;;;;;;;;;;;18.52;63.70;99922.97;5059192;28;2207;-74
2023/08/05 05:15:52;;;;;;;;;;;;;;;18.44;63.92;99921.69;5070210;28;2092;-74
2023/08/05 05:18:44;;;;;;;;;;;;;;;18.73;62.79;99927.16;5055572;28;2335;-74
2023/08/05 05:21:36;;;;;;;;;;;;;;;18.57;63.40;99920.22;5058511;28;2333;-74
2023/08/05 05:24:28;;;;;;;;;;;;;;;18.67;63.10;99922.81;5064376;28;2067;-75
2023/08/05 05:27:20;;;;;;;;;;;;;;;18.45;64.00;99923.31;5066963;28;1801;-74
2023/08/05 05:30:12;;;;;;;;;;;;;;;18.41;64.12;99922.25;5073991;28;1987;-75
2023/08/05 05:33:04;;;;;;;;;;;;;;;18.54;63.44;99918.06;5064190;28;4108;-75
2023/08/05 05:35:58;;;;;;;;;;;;;;;18.57;63.30;99917.47;5060373;28;4173;-76
2023/08/05 05:38:49;;;;;;;;;;;;;;;18.38;63.90;99931.84;5070728;28;3464;-74
2023/08/05 05:41:41;;;;;;;;;;;;;;;18.44;63.61;99934.50;5075019;28;2809;-77
2023/08/05 05:44:33;;;;;;;;;;;;;;;18.45;63.67;99939.69;5070164;28;2599;-74
2023/08/05 05:47:25;;;;;;;;;;;;;;;18.60;63.29;99939.53;5080986;28;2124;-75
2023/08/05 05:50:19;;;;;;;;;;;;;;;18.52;63.29;99931.97;5078327;28;2074;-74
2023/08/05 05:53:13;;;;;;;;;;;;;;;18.39;63.65;99929.91;5070379;28;4386;-76
2023/08/05 05:56:05;;;;;;;;;;;;;;;18.50;63.18;99939.63;5073434;28;4891;-76
2023/08/05 05:58:58;;;;;;;;;;;;;;;18.40;63.83;99928.81;5073801;28;4954;-77
2023/08/05 06:01:49;;;;;;;;;;;;;;;18.52;63.34;99934.69;5070677;28;4284;-76
2023/08/05 06:04:42;;;;;;;;;;;;;;;18.64;63.03;99926.13;5072272;28;5142;-75
2023/08/05 06:07:33;;;;;;;;;;;;;;;18.33;63.91;99931.06;5074717;28;4924;-76
2023/08/05 06:10:28;;;;;;;;;;;;;;;18.50;63.28;99936.06;5075620;28;4907;-76
2023/08/05 06:13:20;;;;;;;;;;;;;;;18.56;62.88;99937.66;5078901;28;5057;-75
2023/08/05 06:16:15;;;;;;;;;;;;;;;18.35;64.04;99939.75;5075583;28;4349;-77
2023/08/05 06:19:06;;;;;;;;;;;;;;;18.31;nan;99944.97;5067261;28;4031;-76
2023/08/05 06:21:58;;;;;;;;;;;;;;;18.43;63.87;99946.50;5066995;28;4024;-76
2023/08/05 06:24:50;;;;;;;;;;;;;;;18.55;63.26;99942.28;5066805;28;4969;-77
2023/08/05 06:27:41;;;;;;;;;;;;;;;18.24;64.23;99947.22;5067458;28;4529;-75
2023/08/05 06:30:34;;;;;;;;;;;;;;;18.53;63.22;99938.22;5066120;28;4308;-76
2023/08/05 06:33:26;;;;;;;;;;;;;;;18.55;62.97;99946.94;5070976;28;4289;-76
2023/08/05 06:36:18;;;;;;;;;;;;;;;18.48;63.15;99949.19;5075026;28;4737;-76
2023/08/05 06:39:10;;;;;;;;;;;;;;;18.49;63.30;99942.63;5076342;28;4506;-75
2023/08/05 06:42:02;;;;;;;;;;;;;;;18.49;63.33;99945.38;5077530;28;4578;-76
2023/08/05 06:44:54;;;;;;;;;;;;;;;18.49;63.03;99948.91;5068015;28;5092;-78
2023/08/05 06:47:46;;;;;;;;;;;;;;;18.48;63.11;99957.38;5062406;28;4651;-75
2023/08/05 06:50:38;;;;;;;;;;;;;;;18.35;63.41;99958.84;5070736;28;4955;-76
2023/08/05 06:53:30;;;;;;;;;;;;;;;18.62;62.87;99966.53;5079916;28;4441;-76
2023/08/05 06:56:22;;;;;;;;;;;;;;;18.39;63.38;99966.16;5081177;28;5148;-76
2023/08/05 06:59:14;;;;;;;;;;;;;;;18.20;64.17;99967.13;5066368;28;4179;-75
2023/08/05 07:02:06;;;;;;;;;;;;;;;18.43;63.27;99958.22;5067141;28;4624;-77
2023/08/05 07:04:58;;;;;;;;;;;;;;;18.42;63.29;99956.63;5066639;28;4925;-76
2023/08/05 07:07:50;;;;;;;;;;;;;;;18.36;63.70;99955.03;5065985;28;4259;-75
2023/08/05 07:10:42;;;;;;;;;;;;;;;18.33;63.35;99956.41;5063656;28;4246;-76
2023/08/05 07:13:34;;;;;;;;;;;;;;;18.38;63.59;99961.00;5066208;28;4614;-76
2023/08/05 07:16:26;;;;;;;;;;;;;;;18.14;64.26;99966.38;5065403;28;4601;-77
2023/08/05 07:19:18;;;;;;;;;;;;;;;18.41;63.50;99948.72;5063024;28;4542;-76
2023/08/05 07:22:10;;;;;;;;;;;;;;;18.33;63.37;99944.69;5067940;28;4708;-76
2023/08/05 07:25:02;;;;;;;;;;;;;;;18.20;63.89;99943.44;5063505;28;4083;-76
2023/08/05 07:27:54;;;;;;;;;;;;;;;17.87;65.23;99947.75;5066090;28;4520;-77
2023/08/05 07:30:46;;;;;;;;;;;;;;;17.96;64.75;99937.88;5064997;28;4227;-77
2023/08/05 07:33:38;;;;;;;;;;;;;;;18.04;64.75;99937.28;5067636;28;4565;-75
2023/08/05 07:36:30;;;;;;;;;;;;;;;17.71;65.62;99941.59;5073361;28;4601;-76
2023/08/05 07:39:23;;;;;;;;;;;;;;;17.72;65.66;99951.38;5067242;28;4580;-76
2023/08/05 07:42:15;;;;;;;;;;;;;;;17.66;65.96;99947.84;5068389;28;4596;-75
2023/08/05 07:45:11;;;;;;;;;;;;;;;17.62;65.90;99946.00;5067464;28;4254;-76
2023/08/05 07:48:06;;;;;;;;;;;;;;;17.59;65.87;99943.81;5064805;28;4262;-77
2023/08/05 07:50:58;;;;;;;;;;;;;;;17.56;66.14;99938.94;5064767;28;4537;-76
2023/08/05 07:53:52;;;;;;;;;;;;;;;17.57;66.20;99940.56;5068096;28;4681;-78
2023/08/05 07:56:45;;;;;;;;;;;;;;;17.59;66.23;99941.09;5063181;28;4512;-78
2023/08/05 07:59:37;;;;;;;;;;;;;;;17.64;65.79;99938.34;5066893;28;4680;-76
2023/08/05 08:02:29;;;;;;;;;;;;;;;17.65;66.10;99940.78;5067915;28;4873;-75
2023/08/05 08:05:21;;;;;;;;;;;;;;;17.82;65.10;99934.16;5067236;28;4817;-77
2023/08/05 08:08:13;;;;;;;;;;;;;;;17.81;65.07;99943.44;5068519;28;4307;-76
2023/08/05 08:11:05;;;;;;;;;;;;;;;17.70;65.51;99938.03;5066626;28;4563;-76
2023/08/05 08:13:57;;;;;;;;;;;;;;;17.73;65.59;99942.09;5065069;28;4615;-77
2023/08/05 08:16:49;;;;;;;;;;;;;;;17.64;65.84;99941.06;5065268;28;4919;-76
2023/08/05 08:19:41;;;;;;;;;;;;;;;17.71;65.86;99938.84;5067313;28;5006;-77
2023/08/05 08:22:33;;;;;;;;;;;;;;;17.64;65.84;99941.06;5067696;28;4607;-76
2023/08/05 08:25:25;;;;;;;;;;;;;;;17.63;65.94;99942.97;5066833;28;4647;-77
2023/08/05 08:28:17;;;;;;;;;;;;;;;17.59;66.20;99944.66;5072357;28;4465;-75
2023/08/05 08:31:09;;;;;;;;;;;;;;;17.58;66.02;99945.72;5072983;28;4771;-75
2023/08/05 08:34:00;;;;;;;;;;;;;;;17.58;66.36;99953.88;5075001;28;5433;-78
2023/08/05 08:36:52;;;;;;;;;;;;;;;17.59;66.14;99951.97;5070577;28;5216;-75
2023/08/05 08:39:44;;;;;;;;;;;;;;;17.59;66.33;99947.38;5063686;28;4690;-76
2023/08/05 08:42:35;;;;;;;;;;;;;;;17.58;66.14;99956.63;5066130;28;4026;-75
2023/08/05 08:45:27;;;;;;;;;;;;;;;17.59;66.14;99950.09;5064080;28;4833;-75
2023/08/05 08:48:19;;;;;;;;;;;;;;;17.58;66.04;99953.09;5064015;28;4568;-77
2023/08/05 08:51:11;;;;;;;;;;;;;;;17.60;66.34;99953.63;5067035;28;4528;-76
2023/08/05 08:54:03;;;;;;;;;;;;;;;17.60;66.38;99951.72;5065248;28;4713;-77
2023/08/05 08:56:55;;;;;;;;;;;;;;;17.60;66.27;99951.72;5063583;28;4833;-76
2023/08/05 08:59:47;;;;;;;;;;;;;;;17.61;66.18;99960.69;5068660;28;4694;-76
2023/08/05 09:02:39;;;;;;;;;;;;;;;17.62;66.10;99965.06;5072026;28;5223;-76
2023/08/05 09:05:31;;;;;;;;;;;;;;;17.62;65.96;99965.88;5069469;28;4754;-77
2023/08/05 09:08:23;;;;;;;;;;;;;;;17.64;66.35;99973.75;5076214;28;4778;-77
2023/08/05 09:11:16;;;;;;;;;;;;;;;17.64;66.42;99973.75;5078501;28;4765;-77
2023/08/05 09:14:08;;;;;;;;;;;;;;;17.65;66.23;99967.22;5074630;28;5290;-77
2023/08/05 09:17:00;;;;;;;;;;;;;;;17.64;66.11;99969.09;5068074;28;4812;-78
2023/08/05 09:19:51;;;;;;;;;;;;;;;17.65;66.10;99968.03;5069375;28;4720;-77
2023/08/05 09:22:43;;;;;;;;;;;;;;;17.65;66.32;99967.22;5073098;28;4844;-74
2023/08/05 09:25:35;;;;;;;;;;;;;;;17.65;66.24;99976.19;5073369;28;4955;-75
2023/08/05 09:28:27;;;;;;;;;;;;;;;17.66;66.23;99975.09;5075038;28;4906;-78
2023/08/05 09:31:19;;;;;;;;;;;;;;;17.66;66.32;99966.09;5070794;28;4730;-77
2023/08/05 09:34:11;;;;;;;;;;;;;;;17.69;66.24;99973.72;5070630;28;4901;-78
2023/08/05 09:37:03;;;;;;;;;;;;;;;17.69;66.03;99979.97;5062276;28;4615;-75
2023/08/05 09:39:55;;;;;;;;;;;;;;;17.69;66.30;99977.25;5061642;28;4807;-77
2023/08/05 09:42:47;;;;;;;;;;;;;;;17.71;66.20;99976.97;5062903;28;4276;-76
2023/08/05 09:45:41;;;;;;;;;;;;;;;17.72;66.33;99981.31;5061133;28;4533;-76
2023/08/05 09:48:34;;;;;;;;;;;;;;;17.73;66.15;99976.69;5067194;28;4397;-76
2023/08/05 09:51:27;;;;;;;;;;;;;;;17.73;66.42;99979.41;5064917;28;4731;-77
2023/08/05 09:54:19;;;;;;;;;;;;;;;17.74;66.20;99978.34;5063143;28;4452;-77
2023/08/05 09:57:13;;;;;;;;;;;;;;;17.74;66.17;99975.63;5076352;28;4671;-76
2023/08/05 10:00:08;;;;;;;;;;;;;;;17.74;66.47;99975.63;5074633;28;5701;-75
2023/08/05 10:03:00;;;;;;;;;;;;;;;17.75;66.16;99978.03;5074704;28;4796;-76
2023/08/05 10:05:51;;;;;;;;;;;;;;;17.76;66.37;99987.81;5078522;28;4840;-78
2023/08/05 10:08:43;;;;;;;;;;;;;;;17.76;66.29;99981.56;5073772;28;4774;-77
2023/08/05 10:11:35;;;;;;;;;;;;;;;17.78;66.28;99979.41;5071988;28;4907;-78
2023/08/05 10:14:27;;;;;;;;;;;;;;;17.77;66.14;99977.78;5072836;28;5416;-75
2023/08/05 10:17:19;;;;;;;;;;;;;;;17.78;66.26;99971.25;5075135;28;4739;-76
2023/08/05 10:20:10;;;;;;;;;;;;;;;17.78;66.40;99974.78;5075933;28;5384;-77
2023/08/05 10:23:03;;;;;;;;;;;;;;;17.79;66.42;99972.88;5070067;28;4731;-77
2023/08/05 10:25:54;;;;;;;;;;;;;;;17.81;66.26;99970.69;5076552;28;4726;-78
2023/08/05 10:28:46;;;;;;;;;;;;;;;17.79;66.45;99959.25;5074752;28;5330;-77
2023/08/05 10:31:37;;;;;;;;;;;;;;;17.80;66.23;99956.25;5074548;28;5056;-78
2023/08/05 10:34:29;;;;;;;;;;;;;;;17.82;66.28;99958.69;5071496;28;4959;-76
2023/08/05 10:37:21;;;;;;;;;;;;;;;17.83;66.20;99952.16;5071263;28;4956;-76
2023/08/05 10:40:13;;;;;;;;;;;;;;;17.83;66.43;99957.59;5072833;28;4798;-77
2023/08/05 10:43:05;;;;;;;;;;;;;;;17.82;66.45;99956.78;5076272;28;4921;-77
2023/08/05 10:45:57;;;;;;;;;;;;;;;17.84;66.41;99961.94;5069639;28;4971;-76
2023/08/05 10:48:49;;;;;;;;;;;;;;;17.84;66.12;99962.75;5066194;28;4778;-76
2023/08/05 10:51:41;;;;;;;;;;;;;;;17.84;66.21;99957.31;5063427;28;4302;-76
2023/08/05 10:54:33;;;;;;;;;;;;;;;17.86;66.48;99955.13;5063899;28;4541;-77
2023/08/05 10:57:25;;;;;;;;;;;;;;;17.85;66.35;99955.41;5063783;28;4635;-76
2023/08/05 11:00:17;;;;;;;;;;;;;;;17.86;66.26;99948.88;5068240;28;4918;-77
2023/08/05 11:03:09;;;;;;;;;;;;;;;17.86;66.33;99954.31;5073694;28;4919;-76
2023/08/05 11:06:01;;;;;;;;;;;;;;;17.86;66.67;99952.41;5066942;28;4528;-77
2023/08/05 11:08:53;;;;;;;;;;;;;;;17.87;66.35;99948.56;5067644;28;4596;-77
2023/08/05 11:11:45;;;;;;;;;;;;;;;17.87;66.56;99942.31;5068878;28;4765;-77
2023/08/05 11:14:37;;;;;;;;;;;;;;;17.88;66.33;99939.31;5067965;28;4508;-76
2023/08/05 11:17:29;;;;;;;;;;;;;;;17.88;66.36;99944.78;5068571;28;4435;-79
2023/08/05 11:20:21;;;;;;;;;;;;;;;17.89;66.54;99934.69;5069199;28;4979;-76
2023/08/05 11:23:13;;;;;;;;;;;;;;;17.90;66.40;99936.31;5066140;28;5219;-77
2023/08/05 11:26:05;;;;;;;;;;;;;;;17.89;66.39;99932.78;5063649;28;4429;-77
2023/08/05 11:28:57;;;;;;;;;;;;;;;17.90;66.31;99928.94;5066810;28;4659;-77
2023/08/05 11:31:49;;;;;;;;;;;;;;;17.90;66.33;99926.22;5076078;28;5571;-75
2023/08/05 11:34:41;;;;;;;;;;;;;;;17.92;66.35;99921.31;5071971;28;5243;-76
2023/08/05 11:37:33;;;;;;;;;;;;;;;17.91;66.40;99924.31;5076407;28;5565;-77
2023/08/05 11:40:25;;;;;;;;;;;;;;;17.93;66.65;99919.38;5069424;28;5440;-76
2023/08/05 11:43:17;;;;;;;;;;;;;;;17.92;66.35;99915.06;5077417;28;5491;-77
2023/08/05 11:46:09;;;;;;;;;;;;;;;17.92;66.50;99918.59;5075094;28;5334;-78
2023/08/05 11:49:01;;;;;;;;;;;;;;;17.93;66.38;99922.91;5072513;28;5438;-76
2023/08/05 11:51:53;;;;;;;;;;;;;;;17.93;66.43;99914.75;5066812;28;4500;-79
2023/08/05 11:54:47;;;;;;;;;;;;;;;17.95;66.43;99911.75;5076340;28;4905;-77
2023/08/05 11:57:39;;;;;;;;;;;;;;;17.95;66.43;99906.31;5078422;28;4820;-76
2023/08/05 12:00:31;;;;;;;;;;;;;;;17.95;66.32;99911.75;5078280;28;4743;-77
2023/08/05 12:03:22;;;;;;;;;;;;;;;18.06;66.08;99910.59;5064334;28;4594;-78
2023/08/05 12:06:14;;;;;;;;;;;;;;;18.00;66.31;99910.88;5059906;28;4603;-79
2023/08/05 12:09:07;;;;;;;;;;;;;;;18.02;66.39;99905.97;5061548;28;4402;-76
2023/08/05 12:11:58;;;;;;;;;;;;;;;17.65;66.52;99847.41;5068133;28;5006;-78
2023/08/05 12:14:50;;;;;;;;;;;;;;;18.01;66.50;99913.34;5064025;28;2734;-78
2023/08/05 12:17:42;;;;;;;;;;;;;;;18.02;66.77;99914.97;5078013;28;4875;-78
2023/08/05 12:20:34;;;;;;;;;;;;;;;18.03;66.57;99915.75;5071652;28;4874;-76
2023/08/05 12:23:29;;;;;;;;;;;;;;;18.03;66.81;99916.59;5075778;28;4728;-76
2023/08/05 12:26:21;;;;;;;;;;;;;;;18.03;66.55;99908.44;5070177;28;4739;-77
2023/08/05 12:29:12;;;;;;;;;;;;;;;18.03;66.57;99905.72;5073443;28;4786;-78
2023/08/05 12:32:04;;;;;;;;;;;;;;;18.03;66.85;99905.72;5074516;28;4929;-76
2023/08/05 12:34:56;;;;;;;;;;;;;;;18.05;66.85;99908.13;5072301;28;4843;-77
2023/08/05 12:37:48;;;;;;;;;;;;;;;18.06;66.59;99909.75;5075307;28;4805;-77
2023/08/05 12:40:40;;;;;;;;;;;;;;;18.06;66.73;99910.59;5076388;28;4770;-76
2023/08/05 12:43:32;;;;;;;;;;;;;;;18.05;66.73;99903.50;5067558;28;4674;-78
2023/08/05 12:46:24;;;;;;;;;;;;;;;18.07;66.76;99903.22;5069072;28;5901;-77
2023/08/05 12:49:16;;;;;;;;;;;;;;;18.09;66.95;99903.75;5073872;28;4679;-76
2023/08/05 12:52:08;;;;;;;;;;;;;;;18.08;66.97;99907.56;5065480;28;4629;-76
2023/08/05 12:55:01;;;;;;;;;;;;;;;18.09;66.74;99915.47;5071228;28;4805;-78
2023/08/05 12:57:52;;;;;;;;;;;;;;;18.09;67.12;99906.47;5070775;28;4807;-76
2023/08/05 13:00:43;;;;;;;;;;;;;;;18.10;66.82;99908.91;5072919;28;5645;-76
2023/08/05 13:03:35;;;;;;;;;;;;;;;18.12;66.98;99905.91;5067675;28;4747;-77
2023/08/05 13:06:27;;;;;;;;;;;;;;;18.11;66.93;99907.78;5072395;28;5180;-74
2023/08/05 13:09:19;;;;;;;;;;;;;;;18.12;67.11;99908.63;5075013;28;4893;-78
2023/08/05 13:12:13;;;;;;;;;;;;;;;18.13;67.16;99905.59;5071329;28;4942;-76
2023/08/05 13:15:04;;;;;;;;;;;;;;;18.15;67.09;99902.63;5072658;28;4881;-76
2023/08/05 13:17:56;;;;;;;;;;;;;;;18.14;67.15;99903.69;5070690;28;4801;-78
2023/08/05 13:20:48;;;;;;;;;;;;;;;18.15;67.01;99906.16;5071561;28;5496;-77
2023/08/05 13:23:39;;;;;;;;;;;;;;;18.17;67.29;99908.56;5076442;28;4811;-78
2023/08/05 13:26:31;;;;;;;;;;;;;;;18.17;67.05;99911.28;5076491;28;4734;-77
2023/08/05 13:29:23;;;;;;;;;;;;;;;18.19;67.39;99916.47;5074692;28;4735;-77
2023/08/05 13:32:15;;;;;;;;;;;;;;;18.19;66.98;99920.00;5072799;28;4754;-75
2023/08/05 13:35:07;;;;;;;;;;;;;;;18.20;67.18;99918.09;5069115;28;4592;-77
2023/08/05 13:38:00;;;;;;;;;;;;;;;18.21;67.47;99911.56;5064571;28;4731;-76
2023/08/05 13:40:52;;;;;;;;;;;;;;;18.22;67.17;99908.53;5065868;28;5323;-77
2023/08/05 13:43:45;;;;;;;;;;;;;;;18.22;67.53;99903.09;5071728;28;4783;-77
2023/08/05 13:46:37;;;;;;;;;;;;;;;18.24;67.20;99913.72;5068577;28;5108;-77
2023/08/05 13:49:29;;;;;;;;;;;;;;;18.24;67.39;99911.00;5064477;28;4724;-78
2023/08/05 13:52:21;;;;;;;;;;;;;;;18.25;67.29;99907.16;5065215;28;4737;-75
2023/08/05 13:55:13;;;;;;;;;;;;;;;18.27;67.54;99926.75;5077420;28;4806;-76
2023/08/05 13:58:04;;;;;;;;;;;;;;;18.27;67.70;99916.66;5066913;28;4798;-76
2023/08/05 14:00:56;;;;;;;;;;;;;;;18.29;67.49;99916.38;5069637;28;4721;-76
2023/08/05 14:03:48;;;;;;;;;;;;;;;18.28;67.57;99910.13;5073141;28;4544;-75
2023/08/05 14:06:40;;;;;;;;;;;;;;;18.29;67.67;99913.66;5075413;28;4719;-76
2023/08/05 14:09:33;;;;;;;;;;;;;;;18.30;67.59;99902.47;5077311;28;4497;-76
2023/08/05 14:12:25;;;;;;;;;;;;;;;18.32;67.51;99902.16;5075584;28;5199;-76
2023/08/05 14:15:17;;;;;;;;;;;;;;;18.32;67.71;99903.00;5077218;28;4675;-77
2023/08/05 14:18:09;;;;;;;;;;;;;;;18.33;67.73;99904.63;5073161;28;4636;-76
2023/08/05 14:21:01;;;;;;;;;;;;;;;18.33;67.79;99915.53;5072933;28;4737;-77
2023/08/05 14:23:52;;;;;;;;;;;;;;;18.34;67.87;99919.88;5075960;28;4574;-76
2023/08/05 14:26:44;;;;;;;;;;;;;;;18.34;67.88;99916.34;5074393;28;4577;-77
2023/08/05 14:29:35;;;;;;;;;;;;;;;18.35;67.76;99921.50;5074547;28;4670;-77
2023/08/05 14:32:27;;;;;;;;;;;;;;;18.36;67.92;99931.31;5076727;28;5366;-77
2023/08/05 14:35:18;;;;;;;;;;;;;;;18.36;67.88;99930.50;5075831;28;5191;-76
2023/08/05 14:38:09;;;;;;;;;;;;;;;18.37;67.96;99943.81;5078407;28;5281;-75
2023/08/05 14:41:01;;;;;;;;;;;;;;;18.38;67.87;99958.25;5076667;28;4681;-77
2023/08/05 14:43:53;;;;;;;;;;;;;;;18.39;67.97;99962.63;5074851;28;4198;-76
2023/08/05 14:46:45;;;;;;;;;;;;;;;18.38;67.75;99964.56;5078040;28;5175;-76
2023/08/05 14:49:37;;;;;;;;;;;;;;;18.40;67.61;99961.53;5078872;28;4896;-75
2023/08/05 14:52:30;;;;;;;;;;;;;;;18.44;67.97;99964.50;5077776;28;4908;-79
2023/08/05 14:55:22;;;;;;;;;;;;;;;18.44;68.00;99972.66;5078110;28;4924;-78
2023/08/05 14:58:14;;;;;;;;;;;;;;;18.43;68.03;99962.88;5069865;28;4681;-75
2023/08/05 15:01:16;;;;;;;;;;;;;;;18.43;68.05;99962.88;5065773;28;5330;-78
2023/08/05 15:04:07;;;;;;;;;;;;;;;18.43;68.14;99962.88;5066855;28;4730;-75
2023/08/05 15:06:59;;;;;;;;;;;;;;;18.43;68.19;99971.84;5067919;28;4482;-76